Time;durP1;ratioP1;P1;durP2;ratioP2;P2;SDS_P1;SDS_P2;PMS_P1;PMS_P2;Temp;Humidity;BMP_temperature;BMP_pressure;BME280_temperature;BME280_humidity;BME280_pressure;Samples;Min_cycle;Max_cycle;Signal;HPM_P1;HPM_P2
2023/05/19 11:52:43;;;;;;;7.50;4.82;;;;;;;14.04;79.80;96813.56;5046168;28;20072;-69
2023/05/19 11:55:13;;;;;;;10.77;4.13;;;;;;;14.01;79.11;96817.09;5047365;28;20092;-70
2023/05/19 11:57:38;;;;;;;7.85;4.00;;;;;;;14.31;76.74;96808.56;5052388;28;20119;-71
2023/05/19 12:00:07;;;;;;;8.80;4.82;;;;;;;13.99;77.90;96812.00;5048882;28;20795;-73
2023/05/19 12:02:34;;;;;;;8.70;4.28;;;;;;;14.00;77.59;96819.06;5055574;28;20594;-69
2023/05/19 12:05:00;;;;;;;7.25;4.40;;;;;;;13.87;79.01;96806.81;5050003;28;20060;-69
2023/05/19 12:07:26;;;;;;;8.50;4.13;;;;;;;14.82;76.46;96810.31;5048342;28;20048;-69
2023/05/19 12:09:52;;;;;;;9.43;4.78;;;;;;;15.05;70.61;96809.13;5051255;28;20457;-69
2023/05/19 12:12:21;;;;;;;11.63;4.68;;;;;;;14.68;76.18;96813.81;5050163;28;20048;-69
2023/05/19 12:14:48;;;;;;;8.82;4.40;;;;;;;14.83;75.21;96806.34;5053610;28;20094;-70
2023/05/19 12:17:19;;;;;;;7.55;4.30;;;;;;;14.07;74.77;96808.09;5039761;28;20497;-69
2023/05/19 12:19:47;;;;;;;9.63;4.70;;;;;;;13.72;77.43;96816.94;5054191;28;20052;-67
2023/05/19 12:22:14;;;;;;;8.43;4.50;;;;;;;13.63;78.19;96814.56;5044958;28;20097;-68
2023/05/19 12:24:41;;;;;;;11.27;4.75;;;;;;;13.84;78.61;96808.38;5053650;28;20053;-69
2023/05/19 12:27:12;;;;;;;8.68;4.38;;;;;;;13.58;79.49;96807.44;5047841;28;20043;-68
2023/05/19 12:29:38;;;;;;;14.35;4.97;;;;;;;13.61;79.11;96805.88;5048590;28;20037;-67
2023/05/19 12:32:07;;;;;;;8.63;4.32;;;;;;;13.70;79.45;96805.53;5050359;28;20912;-72
2023/05/19 12:34:35;;;;;;;9.05;4.72;;;;;;;13.87;76.97;96804.06;5036677;28;20044;-69
2023/05/19 12:37:01;;;;;;;8.45;4.40;;;;;;;14.36;78.49;96804.66;5052218;28;20083;-70
2023/05/19 12:39:27;;;;;;;9.63;5.57;;;;;;;14.64;75.85;96807.50;5047568;28;20075;-69
2023/05/19 12:42:00;;;;;;;9.63;5.00;;;;;;;14.68;72.93;96807.53;5051036;28;20050;-67
2023/05/19 12:44:26;;;;;;;10.45;4.47;;;;;;;14.28;74.90;96798.34;5045557;28;20053;-67
2023/05/19 12:46:52;;;;;;;9.68;4.35;;;;;;;14.62;74.84;96796.09;5048749;28;20762;-66
2023/05/19 12:49:17;;;;;;;10.95;4.68;;;;;;;14.49;74.65;96781.84;5045845;28;20143;-67
2023/05/19 12:51:50;;;;;;;9.52;4.82;;;;;;;14.10;78.20;96790.00;5031543;28;20554;-69
2023/05/19 12:54:21;;;;;;;11.00;5.45;;;;;;;14.12;76.63;96787.66;5047472;28;20032;-69
2023/05/19 12:56:50;;;;;;;11.48;5.03;;;;;;;14.31;77.69;96786.53;5048419;28;20048;-68
2023/05/19 12:59:24;;;;;;;16.08;6.13;;;;;;;13.95;81.49;96784.44;5057244;28;20124;-67
2023/05/19 13:01:56;;;;;;;10.75;5.70;;;;;;;14.23;79.01;96782.97;5061877;28;20033;-67
2023/05/19 13:04:23;;;;;;;11.15;6.05;;;;;;;14.52;78.95;96788.56;5055027;28;21088;-68
2023/05/19 13:06:49;;;;;;;11.23;6.68;;;;;;;14.01;77.87;96779.34;5060809;28;20504;-69
2023/05/19 13:09:16;;;;;;;16.27;6.53;;;;;;;13.82;79.64;96774.94;5055353;28;20048;-68
2023/05/19 13:11:42;;;;;;;14.63;5.82;;;;;;;14.50;79.84;96790.91;5061794;28;20127;-68
2023/05/19 13:14:08;;;;;;;12.02;6.10;;;;;;;14.75;77.83;96781.91;5053875;28;20064;-69
2023/05/19 13:16:34;;;;;;;10.95;6.22;;;;;;;13.99;76.30;96778.16;5060612;28;20047;-69
2023/05/19 13:18:59;;;;;;;12.13;6.03;;;;;;;14.20;77.76;96789.25;5043651;28;20036;-69
2023/05/19 13:21:25;;;;;;;13.55;7.22;;;;;;;14.03;78.39;96778.97;5038808;28;20072;-67
2023/05/19 13:23:51;;;;;;;12.02;6.03;;;;;;;14.02;78.59;96785.63;5041278;28;20044;-70
2023/05/19 13:26:17;;;;;;;13.20;6.50;;;;;;;13.76;78.98;96784.75;5055726;28;20048;-68
2023/05/19 13:28:42;;;;;;;13.07;6.32;;;;;;;14.01;79.16;96776.59;5060400;28;20497;-69
2023/05/19 13:31:07;;;;;;;13.73;7.43;;;;;;;13.98;79.41;96782.88;5055677;28;20120;-66
2023/05/19 13:33:33;;;;;;;13.55;7.28;;;;;;;14.21;78.63;96779.81;5060707;28;20032;-66
2023/05/19 13:35:58;;;;;;;14.88;6.78;;;;;;;14.22;78.34;96775.88;5060513;28;20047;-67
2023/05/19 13:38:23;;;;;;;12.68;7.05;;;;;;;14.39;77.58;96776.34;5058494;28;20079;-69
2023/05/19 13:40:49;;;;;;;13.75;7.53;;;;;;;14.32;78.52;96782.59;5064211;28;20045;-66
2023/05/19 13:43:15;;;;;;;11.68;6.32;;;;;;;15.09;75.51;96779.59;5041200;28;20048;-67
2023/05/19 13:45:42;;;;;;;16.83;7.03;;;;;;;14.80;75.58;96774.06;5064143;28;20036;-66
2023/05/19 13:48:07;;;;;;;12.15;6.88;;;;;;;14.71;75.31;96776.41;5059472;28;20135;-68
2023/05/19 13:50:33;;;;;;;9.45;7.00;;;;;;;14.45;77.13;96783.81;5065618;28;20037;-69
2023/05/19 13:52:58;;;;;;;11.00;6.47;;;;;;;15.15;76.91;96779.97;5064967;28;20044;-66
2023/05/19 13:55:26;;;;;;;14.80;6.63;;;;;;;15.00;78.36;96785.50;5058752;28;20044;-67
2023/05/19 13:57:52;;;;;;;13.73;6.60;;;;;;;14.86;74.79;96778.00;5076504;28;20040;-68
2023/05/19 14:00:18;;;;;;;11.15;6.35;;;;;;;14.52;75.46;96783.03;5077364;28;20477;-67
2023/05/19 14:02:43;;;;;;;10.30;6.47;;;;;;;14.68;75.09;96788.22;5064810;28;20059;-67
2023/05/19 14:05:09;;;;;;;12.55;6.40;;;;;;;15.27;74.13;96779.59;5060217;28;20104;-66
2023/05/19 14:07:34;;;;;;;17.35;6.95;;;;;;;14.93;75.54;96781.94;5064453;28;20055;-66
2023/05/19 14:10:01;;;;;;;11.82;6.85;;;;;;;14.78;76.23;96770.88;5064026;28;20477;-66
2023/05/19 14:12:27;;;;;;;14.25;7.78;;;;;;;14.42;77.09;96783.81;5060306;28;20040;-66
2023/05/19 14:14:53;;;;;;;15.32;6.97;;;;;;;14.68;76.30;96772.47;5063865;28;20485;-70
2023/05/19 14:17:18;;;;;;;10.90;7.45;;;;;;;14.74;75.56;96772.09;5040649;28;20062;-69
2023/05/19 14:19:44;;;;;;;11.35;6.95;;;;;;;14.88;74.59;96772.09;5064234;28;20074;-69
2023/05/19 14:22:09;;;;;;;14.35;7.13;;;;;;;14.73;75.08;96774.06;5057136;28;20493;-68
2023/05/19 14:24:35;;;;;;;11.77;7.25;;;;;;;14.43;75.65;96774.38;5048892;28;20056;-69
2023/05/19 14:27:00;;;;;;;10.77;7.45;;;;;;;14.41;75.70;96766.50;5076266;28;20063;-70
2023/05/19 14:29:25;;;;;;;11.23;6.90;;;;;;;14.75;74.11;96768.13;5047912;28;20049;-67
2023/05/19 14:31:51;;;;;;;9.40;6.65;;;;;;;14.99;74.83;96775.63;5063824;28;20041;-68
2023/05/19 14:34:19;;;;;;;13.30;7.82;;;;;;;14.71;76.70;96768.13;5058492;28;20039;-66
2023/05/19 14:36:45;;;;;;;12.13;7.30;;;;;;;14.48;75.67;96774.78;5063289;28;20515;-67
2023/05/19 14:39:11;;;;;;;11.45;7.15;;;;;;;14.71;74.15;96779.97;5058567;28;20037;-67
2023/05/19 14:41:36;;;;;;;14.57;7.15;;;;;;;14.80;75.76;96779.59;5064498;28;20110;-69
2023/05/19 14:44:02;;;;;;;11.82;7.43;;;;;;;15.00;75.25;96779.97;5063950;28;20112;-66
2023/05/19 14:46:27;;;;;;;12.70;6.20;;;;;;;15.49;73.28;96781.13;5058406;28;20056;-68
2023/05/19 14:48:52;;;;;;;14.05;7.22;;;;;;;14.96;74.85;96764.59;5063132;28;20036;-68
2023/05/19 14:51:18;;;;;;;10.35;6.35;;;;;;;15.02;73.77;96772.09;5058161;28;20041;-68
2023/05/19 14:53:43;;;;;;;15.35;6.72;;;;;;;15.32;72.54;96770.09;5061608;28;20048;-67
2023/05/19 14:56:09;;;;;;;11.18;6.65;;;;;;;15.14;73.78;96778.41;5058850;28;20397;-67
2023/05/19 14:58:35;;;;;;;14.45;7.35;;;;;;;14.84;73.25;96766.56;5063500;28;20087;-68
2023/05/19 15:01:00;;;;;;;10.95;6.75;;;;;;;14.52;76.40;96774.78;5044782;28;20052;-67
2023/05/19 15:03:25;;;;;;;9.23;6.97;;;;;;;14.51;77.39;96771.25;5058163;28;20048;-69
2023/05/19 15:05:51;;;;;;;11.65;7.43;;;;;;;13.96;77.30;96769.50;5044842;28;20085;-71
2023/05/19 15:08:16;;;;;;;13.35;7.80;;;;;;;13.90;79.35;96757.28;5057905;28;20036;-69
2023/05/19 15:10:41;;;;;;;12.30;7.50;;;;;;;14.04;79.07;96758.50;5061875;28;20474;-69
2023/05/19 15:13:07;;;;;;;12.90;7.15;;;;;;;14.48;77.85;96768.47;5058699;28;20504;-69
2023/05/19 15:15:32;;;;;;;14.15;7.38;;;;;;;14.28;77.32;96765.28;5063091;28;20072;-66
2023/05/19 15:17:58;;;;;;;14.70;7.22;;;;;;;14.32;78.18;96769.59;5062958;28;20037;-69
2023/05/19 15:20:23;;;;;;;11.75;7.38;;;;;;;14.24;78.00;96762.53;5058335;28;20095;-69
2023/05/19 15:22:48;;;;;;;18.55;8.93;;;;;;;14.07;78.73;96758.50;5061929;28;20419;-68
2023/05/19 15:25:14;;;;;;;11.73;7.20;;;;;;;14.60;78.44;96762.59;5057105;28;20106;-69
2023/05/19 15:27:39;;;;;;;14.02;9.70;;;;;;;14.91;75.27;96763.03;5061737;28;20397;-68
2023/05/19 15:30:05;;;;;;;14.15;7.28;;;;;;;14.58;76.30;96761.44;5055766;28;20131;-69
2023/05/19 15:32:31;;;;;;;12.02;7.13;;;;;;;14.31;78.48;96756.22;5062108;28;20063;-67
2023/05/19 15:34:56;;;;;;;13.55;7.63;;;;;;;14.07;77.83;96746.72;5062535;28;20051;-67
2023/05/19 15:37:22;;;;;;;14.25;7.53;;;;;;;13.70;80.16;96756.81;5057093;28;20589;-67
2023/05/19 15:39:47;;;;;;;17.35;7.90;;;;;;;13.73;80.79;96752.47;5062009;28;20434;-67
2023/05/19 15:42:12;;;;;;;11.73;7.13;;;;;;;13.68;79.81;96759.13;5056638;28;20144;-70
2023/05/19 15:44:38;;;;;;;13.00;7.85;;;;;;;13.55;81.57;96738.63;5042249;28;20078;-69
2023/05/19 15:47:03;;;;;;;12.00;7.15;;;;;;;13.64;81.38;96752.03;5058079;28;20044;-73
2023/05/19 15:49:29;;;;;;;13.18;6.93;;;;;;;13.64;81.94;96749.28;5060732;28;20413;-68
2023/05/19 15:51:54;;;;;;;10.98;7.65;;;;;;;13.33;83.70;96743.22;5062309;28;20037;-67
2023/05/19 15:54:19;;;;;;;12.52;7.15;;;;;;;13.60;82.78;96757.53;5021921;28;20033;-67
2023/05/19 15:56:45;;;;;;;13.35;8.20;;;;;;;13.70;81.96;96740.28;5061830;28;20068;-68
2023/05/19 15:59:10;;;;;;;13.85;7.38;;;;;;;13.47;82.59;96743.31;5056696;28;20489;-69
2023/05/19 16:01:36;;;;;;;15.35;7.55;;;;;;;13.52;82.63;96737.44;5043164;28;20511;-69
2023/05/19 16:04:02;;;;;;;11.13;7.70;;;;;;;13.65;82.84;96735.16;5061193;28;20563;-70
2023/05/19 16:06:28;;;;;;;12.68;7.80;;;;;;;13.18;83.99;96745.03;5058693;28;20072;-66
2023/05/19 16:08:53;;;;;;;14.30;8.65;;;;;;;13.09;84.45;96739.91;5061695;28;20044;-68
2023/05/19 16:11:19;;;;;;;13.40;8.35;;;;;;;12.99;85.65;96721.34;5057557;28;20397;-72
2023/05/19 16:13:45;;;;;;;11.82;7.78;;;;;;;13.09;86.64;96736.34;5061659;28;20087;-68
2023/05/19 16:16:11;;;;;;;14.85;8.43;;;;;;;12.98;86.91;96739.81;5054178;28;20068;-69
2023/05/19 16:18:36;;;;;;;12.52;7.75;;;;;;;13.05;87.21;96730.03;5061140;28;20047;-69
2023/05/19 16:21:02;;;;;;;15.23;7.90;;;;;;;13.05;86.83;96727.28;5061114;28;20054;-74
2023/05/19 16:23:27;;;;;;;13.15;8.15;;;;;;;12.91;87.06;96725.22;5057050;28;20040;-68
2023/05/19 16:25:53;;;;;;;11.95;8.02;;;;;;;12.95;86.90;96734.28;5043499;28;20536;-68
2023/05/19 16:28:19;;;;;;;16.52;8.07;;;;;;;12.74;86.75;96721.94;5056034;28;20043;-67
2023/05/19 16:30:45;;;;;;;12.68;7.47;;;;;;;12.69;88.15;96719.53;5061017;28;20044;-68
2023/05/19 16:33:11;;;;;;;14.60;8.40;;;;;;;12.70;88.44;96723.88;5057061;28;20397;-69
2023/05/19 16:35:36;;;;;;;17.05;8.82;;;;;;;12.57;89.63;96733.59;5061258;28;20097;-67
2023/05/19 16:38:02;;;;;;;13.73;8.18;;;;;;;12.65;89.98;96715.97;5060219;28;20497;-74
2023/05/19 16:40:27;;;;;;;15.23;7.97;;;;;;;12.58;90.35;96721.41;5058002;28;20039;-67
2023/05/19 16:42:52;;;;;;;15.65;8.40;;;;;;;12.65;89.81;96720.69;5060832;28;20437;-68
2023/05/19 16:45:18;;;;;;;12.25;8.23;;;;;;;12.59;89.98;96729.28;5055748;28;20045;-69
2023/05/19 16:47:43;;;;;;;13.93;8.45;;;;;;;12.54;89.71;96720.59;5061199;28;20044;-69
2023/05/19 16:50:09;;;;;;;14.98;7.65;;;;;;;12.70;88.73;96723.88;5056509;28;20102;-68
2023/05/19 16:52:35;;;;;;;15.63;8.05;;;;;;;12.53;89.69;96722.56;5061005;28;20055;-68
2023/05/19 16:55:01;;;;;;;14.25;8.20;;;;;;;12.68;89.65;96726.22;5061524;28;20204;-68
2023/05/19 16:57:26;;;;;;;12.60;8.02;;;;;;;12.54;90.62;96724.13;5056215;28;20370;-71
2023/05/19 16:59:52;;;;;;;13.32;8.57;;;;;;;12.40;90.54;96735.75;5061429;28;20425;-68
2023/05/19 17:02:17;;;;;;;11.75;8.00;;;;;;;12.38;90.75;96721.63;5056402;28;20761;-67
2023/05/19 17:04:42;;;;;;;13.20;8.07;;;;;;;12.50;90.62;96728.03;5061981;28;20049;-67
2023/05/19 17:07:14;;;;;;;12.77;8.48;;;;;;;12.45;89.67;96725.63;5055103;28;20043;-72
2023/05/19 17:09:40;;;;;;;13.80;8.10;;;;;;;12.41;90.11;96722.84;5060898;28;20052;-68
2023/05/19 17:12:06;;;;;;;14.68;8.05;;;;;;;12.43;89.86;96723.25;5039614;28;20048;-68
2023/05/19 17:14:31;;;;;;;15.57;7.68;;;;;;;12.41;91.28;96726.38;5065377;28;20040;-68
2023/05/19 17:16:56;;;;;;;11.35;8.10;;;;;;;12.34;90.97;96706.28;5048913;28;20136;-67
2023/05/19 17:19:22;;;;;;;12.75;7.10;;;;;;;12.40;90.83;96724.78;5060197;28;20489;-67
2023/05/19 17:21:47;;;;;;;13.75;8.10;;;;;;;12.28;91.18;96716.84;5065165;28;20088;-70
2023/05/19 17:24:12;;;;;;;10.95;7.20;;;;;;;12.30;91.90;96720.00;5041872;28;20032;-68
2023/05/19 17:26:38;;;;;;;14.73;7.72;;;;;;;12.42;91.40;96719.72;5064596;28;20037;-68
2023/05/19 17:29:04;;;;;;;14.70;8.07;;;;;;;12.34;91.69;96723.56;5042758;28;20048;-71
2023/05/19 17:31:30;;;;;;;12.48;7.53;;;;;;;12.25;92.26;96723.06;5064572;28;20047;-69
2023/05/19 17:33:55;;;;;;;10.85;7.40;;;;;;;12.27;93.33;96715.25;5065946;28;20040;-69
2023/05/19 17:36:21;;;;;;;13.57;7.82;;;;;;;12.21;93.09;96717.53;5060492;28;20040;-68
2023/05/19 17:38:46;;;;;;;10.85;7.53;;;;;;;12.23;93.35;96720.69;5079174;28;20043;-68
2023/05/19 17:41:12;;;;;;;13.73;8.10;;;;;;;12.26;92.59;96721.09;5079118;28;20051;-67
2023/05/19 17:43:41;;;;;;;16.80;8.40;;;;;;;12.21;92.91;96730.50;5065086;28;20050;-70
2023/05/19 17:46:07;;;;;;;9.95;7.28;;;;;;;12.30;93.09;96730.97;5059810;28;20103;-68
2023/05/19 17:48:33;;;;;;;15.05;8.00;;;;;;;12.20;93.61;96731.66;5045892;28;20047;-67
2023/05/19 17:50:59;;;;;;;10.93;7.45;;;;;;;12.22;92.82;96737.56;5064292;28;20045;-68
2023/05/19 17:53:25;;;;;;;13.02;8.75;;;;;;;12.19;93.50;96725.38;5060152;28;20986;-69
2023/05/19 17:55:52;;;;;;;13.45;9.50;;;;;;;12.17;92.25;96718.66;5064558;28;20041;-68
2023/05/19 17:58:18;;;;;;;10.52;8.18;;;;;;;12.18;92.03;96728.50;5059034;28;20043;-67
2023/05/19 18:00:44;;;;;;;14.98;9.60;;;;;;;12.17;93.12;96724.16;5063577;28;20041;-67
2023/05/19 18:03:10;;;;;;;11.00;7.95;;;;;;;12.18;93.51;96728.50;5060374;28;20453;-67
2023/05/19 18:05:36;;;;;;;15.68;8.38;;;;;;;12.20;92.73;96723.41;5069946;28;20080;-69
2023/05/19 18:08:05;;;;;;;14.13;9.00;;;;;;;12.20;92.61;96732.44;5079102;28;20032;-74
2023/05/19 18:10:35;;;;;;;13.15;9.55;;;;;;;12.18;92.71;96740.25;5068165;28;20512;-70
2023/05/19 18:13:00;;;;;;;;;;;;;;;12.21;92.52;96734.03;5064780;28;20102;-67
2023/05/19 18:15:26;;;;;;;12.37;8.83;;;;;;;12.23;92.65;96733.66;5059209;28;20519;-67
2023/05/19 18:17:51;;;;;;;14.88;9.07;;;;;;;12.18;93.16;96736.72;5062971;28;20290;-67
2023/05/19 18:20:17;;;;;;;15.07;9.45;;;;;;;12.17;93.61;96732.38;5058112;28;20477;-67
2023/05/19 18:22:42;;;;;;;13.25;9.15;;;;;;;12.16;93.68;96734.34;5060967;28;20469;-67
2023/05/19 18:25:08;;;;;;;13.00;8.70;;;;;;;12.19;94.57;96736.34;5057191;28;20052;-68
2023/05/19 18:27:33;;;;;;;13.25;9.10;;;;;;;12.12;94.20;96736.28;5044875;28;20094;-68
2023/05/19 18:29:59;;;;;;;13.30;8.60;;;;;;;12.11;94.33;96742.16;5045646;28;20045;-68
2023/05/19 18:32:24;;;;;;;17.63;9.30;;;;;;;12.04;95.02;96745.59;5058422;28;20041;-68
2023/05/19 18:34:50;;;;;;;11.90;8.00;;;;;;;12.07;94.60;96738.59;5063638;28;20051;-69
2023/05/19 18:37:16;;;;;;;14.77;9.38;;;;;;;12.08;95.23;96735.44;5059182;28;20033;-67
2023/05/19 18:39:41;;;;;;;13.55;8.93;;;;;;;12.07;95.93;96736.63;5064009;28;20041;-68
2023/05/19 18:42:07;;;;;;;11.77;8.27;;;;;;;12.04;96.12;96726.38;5058233;28;20043;-67
2023/05/19 18:44:32;;;;;;;12.25;8.93;;;;;;;12.08;94.69;96720.94;5063665;28;20043;-69
2023/05/19 18:46:58;;;;;;;14.50;8.95;;;;;;;12.10;95.33;96716.66;5059839;28;20102;-68
2023/05/19 18:49:23;;;;;;;11.63;8.35;;;;;;;12.12;94.94;96722.56;5040072;28;20044;-68
2023/05/19 18:51:49;;;;;;;13.52;8.80;;;;;;;12.17;95.06;96715.91;5044507;28;20040;-68
2023/05/19 18:54:14;;;;;;;10.27;7.60;;;;;;;12.02;94.83;96724.00;5039530;28;20135;-68
2023/05/19 18:56:40;;;;;;;16.10;8.50;;;;;;;12.01;95.13;96716.94;5063121;28;20041;-67
2023/05/19 18:59:06;;;;;;;10.52;7.95;;;;;;;12.03;96.02;96716.56;5058219;28;20101;-67
2023/05/19 19:01:32;;;;;;;13.48;8.30;;;;;;;12.04;96.04;96718.91;5062463;28;20075;-66
2023/05/19 19:03:57;;;;;;;15.75;8.77;;;;;;;12.05;96.11;96723.25;5061905;28;20036;-71
2023/05/19 19:06:23;;;;;;;17.00;10.02;;;;;;;12.15;95.80;96721.78;5057812;28;20518;-70
2023/05/19 19:08:48;;;;;;;25.98;14.35;;;;;;;11.99;96.08;96719.28;5062745;28;20082;-68
2023/05/19 19:11:14;;;;;;;22.50;12.52;;;;;;;11.95;96.13;96723.13;5039765;28;20370;-68
2023/05/19 19:13:39;;;;;;;17.13;9.18;;;;;;;12.02;96.15;96721.25;5062250;28;20055;-70
2023/05/19 19:16:05;;;;;;;16.45;8.55;;;;;;;11.93;96.68;96729.00;5057987;28;20052;-74
2023/05/19 19:18:30;;;;;;;13.05;8.75;;;;;;;11.95;96.96;96723.91;5062601;28;20045;-68
2023/05/19 19:20:56;;;;;;;11.57;7.95;;;;;;;12.03;97.15;96722.06;5062596;28;20032;-67
2023/05/19 19:23:22;;;;;;;13.52;7.88;;;;;;;12.13;96.43;96724.13;5057205;28;20353;-68
2023/05/19 19:25:48;;;;;;;15.27;7.82;;;;;;;11.96;96.40;96725.50;5062493;28;20493;-70
2023/05/19 19:28:13;;;;;;;18.85;7.50;;;;;;;11.90;96.58;96737.16;5056777;28;20055;-69
2023/05/19 19:30:39;;;;;;;12.90;8.13;;;;;;;11.93;96.67;96739.19;5061809;28;20037;-69
2023/05/19 19:33:04;;;;;;;11.85;7.63;;;;;;;11.93;97.48;96744.69;5056920;28;20048;-71
2023/05/19 19:35:30;;;;;;;15.00;7.55;;;;;;;12.07;96.26;96735.84;5062475;28;20186;-68
2023/05/19 19:37:57;;;;;;;12.85;7.85;;;;;;;12.13;96.11;96743.34;5062214;28;20037;-70
2023/05/19 19:40:23;;;;;;;13.38;7.50;;;;;;;12.14;95.06;96742.19;5056252;28;20730;-68
2023/05/19 19:42:49;;;;;;;13.15;7.45;;;;;;;12.22;94.66;96745.78;5061370;28;20037;-68
2023/05/19 19:45:15;;;;;;;11.57;7.60;;;;;;;12.29;95.03;96742.34;5057572;28;20497;-69
2023/05/19 19:47:40;;;;;;;15.45;7.78;;;;;;;12.34;94.47;96734.53;5062043;28;20040;-69
2023/05/19 19:50:06;;;;;;;12.70;8.55;;;;;;;12.12;95.55;96736.28;5056662;28;20052;-68
2023/05/19 19:52:32;;;;;;;11.20;7.60;;;;;;;11.96;96.67;96735.72;5062301;28;20036;-69
2023/05/19 19:54:57;;;;;;;16.20;8.27;;;;;;;11.97;96.37;96735.31;5062365;28;20036;-69
2023/05/19 19:57:23;;;;;;;10.55;7.93;;;;;;;11.92;96.97;96737.59;5057455;28;20125;-70
2023/05/19 19:59:55;;;;;;;13.60;7.97;;;;;;;11.96;97.60;96747.47;5061617;28;20508;-70
2023/05/19 20:02:21;;;;;;;11.57;8.38;;;;;;;11.87;98.16;96752.44;5038775;28;20140;-70
2023/05/19 20:04:46;;;;;;;12.02;8.13;;;;;;;11.78;99.12;96752.72;5061115;28;20136;-68
2023/05/19 20:07:12;;;;;;;15.85;9.40;;;;;;;11.79;98.81;96753.50;5056103;28;20071;-68
2023/05/19 20:09:37;;;;;;;13.10;8.82;;;;;;;11.77;99.81;96753.09;5061445;28;20485;-69
2023/05/19 20:12:03;;;;;;;18.10;9.60;;;;;;;11.88;99.81;96748.50;5058584;28;20052;-74
2023/05/19 20:14:28;;;;;;;15.50;8.60;;;;;;;11.81;99.57;96743.75;5060216;28;20056;-68
2023/05/19 20:16:54;;;;;;;17.73;10.35;;;;;;;11.88;99.31;96736.75;5062052;28;20122;-69
2023/05/19 20:19:19;;;;;;;16.05;9.80;;;;;;;11.90;98.94;96739.91;5056447;28;20071;-69
2023/05/19 20:21:44;;;;;;;15.48;9.60;;;;;;;11.97;98.61;96727.06;5060943;28;20048;-68
2023/05/19 20:24:10;;;;;;;13.32;9.57;;;;;;;11.94;98.88;96727.84;5055801;28;20075;-68
2023/05/19 20:26:35;;;;;;;16.48;10.05;;;;;;;11.91;99.50;96720.34;5061418;28;20089;-70
2023/05/19 20:29:01;;;;;;;14.57;9.55;;;;;;;11.95;99.49;96729.41;5060628;28;20140;-68
2023/05/19 20:31:26;;;;;;;17.67;9.30;;;;;;;12.03;99.03;96724.81;5056678;28;20145;-67
2023/05/19 20:33:51;;;;;;;17.60;9.75;;;;;;;12.01;98.83;96718.88;5060739;28;20054;-70
2023/05/19 20:36:17;;;;;;;14.38;9.38;;;;;;;11.94;99.93;96721.53;5055809;28;20048;-68
2023/05/19 20:38:42;;;;;;;18.70;11.85;;;;;;;11.86;100.00;96720.66;5061564;28;20051;-69
2023/05/19 20:41:07;;;;;;;17.52;10.85;;;;;;;11.80;100.00;96722.16;5056273;28;20389;-70
2023/05/19 20:43:33;;;;;;;16.10;11.00;;;;;;;11.78;100.00;96713.53;5043235;28;20040;-70
2023/05/19 20:46:00;;;;;;;16.13;10.52;;;;;;;11.87;100.00;96703.03;5043896;28;20128;-66
2023/05/19 20:48:25;;;;;;;14.57;10.75;;;;;;;11.84;100.00;96707.31;5038169;28;20048;-68
2023/05/19 20:50:52;;;;;;;17.50;11.98;;;;;;;11.84;100.00;96707.31;5060606;28;20500;-69
2023/05/19 20:53:18;;;;;;;23.23;13.43;;;;;;;11.79;100.00;96704.91;5056000;28;20041;-67
2023/05/19 20:55:45;;;;;;;15.85;10.98;;;;;;;11.81;100.00;96699.03;5061426;28;20110;-69
2023/05/19 20:58:10;;;;;;;19.67;11.40;;;;;;;11.83;100.00;96713.19;5057048;28;20044;-68
2023/05/19 21:00:36;;;;;;;16.80;9.75;;;;;;;11.88;100.00;96710.09;5061054;28;20044;-67
2023/05/19 21:03:01;;;;;;;16.40;11.45;;;;;;;11.89;100.00;96710.91;5061224;28;20045;-69
2023/05/19 21:05:26;;;;;;;15.32;10.80;;;;;;;11.90;100.00;96706.97;5056839;28;20041;-67
2023/05/19 21:07:52;;;;;;;18.85;10.30;;;;;;;11.88;100.00;96709.31;5060835;28;20438;-67
2023/05/19 21:10:17;;;;;;;17.77;12.43;;;;;;;11.89;100.00;96705.41;5057190;28;20041;-67
2023/05/19 21:12:43;;;;;;;23.20;11.90;;;;;;;11.81;100.00;96708.06;5061585;28;20040;-69
2023/05/19 21:15:09;;;;;;;20.88;12.68;;;;;;;11.73;100.00;96706.41;5057549;28;20321;-66
2023/05/19 21:17:34;;;;;;;16.48;9.77;;;;;;;11.72;100.00;96715.81;5045055;28;20051;-69
2023/05/19 21:20:00;;;;;;;17.58;12.02;;;;;;;11.74;100.00;96712.66;5048806;28;20053;-72
2023/05/19 21:22:26;;;;;;;13.93;9.50;;;;;;;11.71;100.00;96708.72;5059488;28;20044;-73
2023/05/19 21:24:52;;;;;;;13.45;9.02;;;;;;;11.66;100.00;96711.78;5051644;28;20040;-70
2023/05/19 21:27:18;;;;;;;15.30;10.23;;;;;;;11.63;100.00;96710.59;5056341;28;20057;-67
2023/05/19 21:29:43;;;;;;;16.40;10.93;;;;;;;11.61;100.00;96712.94;5043797;28;20072;-70
2023/05/19 21:32:09;;;;;;;25.73;11.50;;;;;;;11.59;100.00;96707.00;5037403;28;20461;-67
2023/05/19 21:34:34;;;;;;;17.55;11.38;;;;;;;11.58;100.00;96704.66;5043151;28;20870;-68
2023/05/19 21:36:59;;;;;;;22.17;11.93;;;;;;;11.60;100.00;96705.06;5061363;28;20056;-69
2023/05/19 21:39:25;;;;;;;20.48;11.10;;;;;;;11.59;100.00;96706.22;5055063;28;20048;-67
2023/05/19 21:41:50;;;;;;;20.23;12.38;;;;;;;11.55;100.00;96708.13;5061217;28;20412;-70
2023/05/19 21:44:16;;;;;;;17.40;11.15;;;;;;;11.56;100.00;96706.97;5037557;28;20040;-70
2023/05/19 21:46:41;;;;;;;18.90;11.80;;;;;;;11.50;100.00;96692.78;5061035;28;20048;-68
2023/05/19 21:49:07;;;;;;;16.38;10.02;;;;;;;11.50;100.00;96701.00;5071223;28;20334;-69
2023/05/19 21:51:35;;;;;;;19.83;10.65;;;;;;;11.48;100.00;96684.94;5078239;28;20048;-66
2023/05/19 21:54:01;;;;;;;15.70;10.85;;;;;;;11.52;100.00;96686.94;5061009;28;20729;-68
2023/05/19 21:56:27;;;;;;;14.70;10.80;;;;;;;11.53;100.00;96685.78;5057068;28;20101;-68
2023/05/19 21:58:53;;;;;;;16.27;10.65;;;;;;;11.51;100.00;96688.13;5061094;28;20045;-68
2023/05/19 22:01:18;;;;;;;15.15;10.45;;;;;;;11.45;100.00;96688.44;5058883;28;20090;-68
2023/05/19 22:03:44;;;;;;;17.42;10.38;;;;;;;11.43;100.00;96685.28;5063946;28;20524;-67
2023/05/19 22:06:09;;;;;;;13.90;9.68;;;;;;;11.43;100.00;96685.28;5059665;28;20051;-67
2023/05/19 22:08:35;;;;;;;16.60;9.93;;;;;;;11.45;100.00;96679.41;5046486;28;20048;-67
2023/05/19 22:11:00;;;;;;;14.20;10.48;;;;;;;11.46;100.00;96673.53;5064071;28;20102;-68
2023/05/19 22:13:25;;;;;;;17.10;11.60;;;;;;;11.51;100.00;96672.44;5058870;28;20357;-67
2023/05/19 22:15:51;;;;;;;17.63;10.57;;;;;;;11.53;100.00;96672.06;5045802;28;20060;-69
2023/05/19 22:18:16;;;;;;;18.85;10.90;;;;;;;11.55;100.00;96670.53;5058420;28;20040;-67
2023/05/19 22:20:42;;;;;;;16.65;11.07;;;;;;;11.55;100.00;96658.78;5064053;28;20505;-68
2023/05/19 22:23:07;;;;;;;17.02;10.80;;;;;;;11.55;100.00;96661.50;5059157;28;20122;-69
2023/05/19 22:25:32;;;;;;;19.58;10.65;;;;;;;11.54;100.00;96658.00;5064683;28;20056;-69
2023/05/19 22:28:00;;;;;;;16.63;10.60;;;;;;;11.56;100.00;96652.09;5064874;28;20037;-69
2023/05/19 22:30:26;;;;;;;16.55;10.25;;;;;;;11.56;100.00;96646.63;5058465;28;20044;-69
2023/05/19 22:32:51;;;;;;;18.63;10.45;;;;;;;11.57;100.00;96637.22;5063367;28;20405;-67
2023/05/19 22:35:17;;;;;;;17.05;11.18;;;;;;;11.60;100.00;96650.22;5024392;28;20386;-66
2023/05/19 22:37:43;;;;;;;16.20;10.93;;;;;;;11.60;100.00;96651.00;5063272;28;20101;-68
2023/05/19 22:40:08;;;;;;;18.77;10.73;;;;;;;11.61;100.00;96651.78;5058337;28;20048;-69
2023/05/19 22:42:34;;;;;;;16.23;10.68;;;;;;;11.69;100.00;96650.69;5063775;28;20062;-68
2023/05/19 22:44:59;;;;;;;17.92;10.77;;;;;;;11.67;100.00;96650.28;5063146;28;20486;-68
2023/05/19 22:47:25;;;;;;;18.20;11.15;;;;;;;11.66;100.00;96648.69;5040562;28;20044;-67
2023/05/19 22:49:50;;;;;;;17.15;10.63;;;;;;;11.67;100.00;96650.28;5063431;28;20045;-66
2023/05/19 22:52:16;;;;;;;16.88;10.98;;;;;;;11.62;100.00;96643.16;5040289;28;20123;-68
2023/05/19 22:54:41;;;;;;;14.07;10.18;;;;;;;11.66;100.00;96648.69;5062312;28;20047;-68
2023/05/19 22:57:07;;;;;;;15.63;10.93;;;;;;;11.65;100.00;96641.66;5058001;28;20083;-67
2023/05/19 22:59:34;;;;;;;18.60;10.52;;;;;;;11.69;100.00;96641.69;5063256;28;20040;-68
2023/05/19 23:01:59;;;;;;;19.75;11.48;;;;;;;11.64;100.00;96642.81;5062721;28;20041;-69
2023/05/19 23:04:25;;;;;;;19.65;11.07;;;;;;;11.63;100.00;96646.69;5058534;28;20052;-67
2023/05/19 23:06:50;;;;;;;17.40;11.25;;;;;;;11.69;100.00;96636.97;5063500;28;20068;-69